createdAt,value
2016-10-21T00:09:16.308Z,16.247325999999997
2016-10-21T00:29:22.115Z,16.247325999999997
2016-10-21T00:49:28.183Z,16.184848
2016-10-21T01:09:34.164Z,16.184848
2016-10-21T01:29:40.218Z,16.184848
2016-10-21T02:09:52.547Z,16.12237
2016-10-21T02:29:58.283Z,16.12237
2016-10-21T02:50:04.436Z,16.12237
2016-10-21T03:10:10.367Z,16.059891999999998
2016-10-21T03:30:16.516Z,16.059891999999998
2016-10-21T03:50:22.567Z,16.059891999999998
2016-10-21T04:10:28.635Z,15.997414
2016-10-21T04:30:34.989Z,15.997414
2016-10-21T04:50:40.721Z,15.997414
2016-10-21T05:10:46.982Z,15.997414
2016-10-21T05:30:52.784Z,15.997414
2016-10-21T05:50:58.835Z,15.997414
2016-10-21T06:11:04.793Z,15.997414
2016-10-21T06:31:10.970Z,15.997414
2016-10-21T06:51:16.889Z,15.997414
2016-10-21T07:11:23.035Z,15.997414
2016-10-21T07:31:29.073Z,15.997414
2016-10-21T07:51:35.122Z,15.997414
2016-10-21T08:11:41.183Z,15.997414
2016-10-21T08:31:47.206Z,15.997414
2016-10-21T09:11:59.308Z,15.997414
2016-10-21T09:32:05.606Z,15.934401999999999
2016-10-21T09:52:11.292Z,15.934401999999999
2016-10-21T10:12:17.305Z,15.997414
2016-10-21T10:32:23.497Z,15.997414
2016-10-21T10:52:29.912Z,15.934401999999999
2016-10-21T11:12:35.597Z,15.934401999999999
2016-10-21T11:32:41.621Z,15.809445999999998
2016-10-21T11:52:47.668Z,15.809445999999998
2016-10-21T12:12:53.609Z,15.871924
2016-10-21T12:32:59.715Z,15.934401999999999
2016-10-21T12:53:05.805Z,16.059891999999998
2016-10-21T13:13:11.864Z,16.184848
2016-10-21T13:33:17.885Z,16.372282
2016-10-21T13:53:23.970Z,16.497238
2016-10-21T14:13:30.277Z,16.497238
2016-10-21T14:33:36.063Z,16.559715999999998
2016-10-21T14:53:42.055Z,16.622194
2016-10-21T15:13:48.141Z,16.684672
2016-10-21T15:33:54.238Z,16.747149999999998
2016-10-21T15:54:00.608Z,16.747149999999998
2016-10-21T16:14:06.261Z,16.809628
2016-10-21T16:34:12.374Z,16.809628
2016-10-21T16:54:18.350Z,16.747149999999998
2016-10-21T17:14:24.166Z,16.809628
2016-10-21T17:34:30.419Z,16.872106
2016-10-21T17:54:36.458Z,16.872106
2016-10-21T18:14:42.497Z,16.934583999999997
2016-10-21T18:34:48.560Z,16.997062
2016-10-21T18:54:54.612Z,16.934583999999997
2016-10-21T19:15:00.541Z,16.997062
2016-10-21T19:35:06.712Z,17.05954
2016-10-21T19:55:12.750Z,17.122017999999997
2016-10-21T20:15:18.776Z,17.05954
2016-10-21T20:35:24.851Z,17.05954
2016-10-21T20:55:30.856Z,17.05954
2016-10-21T21:15:36.894Z,17.122017999999997
2016-10-21T21:35:42.859Z,17.184496
2016-10-21T21:55:49.072Z,17.184496
2016-10-21T22:15:55.144Z,17.184496
2016-10-21T22:36:01.150Z,17.184496
2016-10-21T22:56:07.149Z,17.122017999999997
2016-10-21T23:16:13.220Z,17.122017999999997
2016-10-21T23:36:19.104Z,17.122017999999997
2016-10-21T23:56:25.128Z,17.184496
